Time;durP1;ratioP1;P1;durP2;ratioP2;P2;SDS_P1;SDS_P2;PMS_P1;PMS_P2;Temp;Humidity;BMP_temperature;BMP_pressure;BME280_temperature;BME280_humidity;BME280_pressure;Samples;Min_cycle;Max_cycle;Signal;HPM_P1;HPM_P2
2023/11/03 00:00:04;;;;;;;0.90;0.77;;;;;;;;;;5053236;28;20021;-86
2023/11/03 00:02:30;;;;;;;0.65;0.65;;;;;;;;;;5036943;28;20032;-89
2023/11/03 00:05:01;;;;;;;1.27;1.10;;;;;;;;;;5037159;28;20029;-88
2023/11/03 00:07:28;;;;;;;0.77;0.77;;;;;;;;;;5036994;28;20033;-90
2023/11/03 00:09:55;;;;;;;0.90;0.80;;;;;;;;;;5043876;28;20024;-87
2023/11/03 00:12:21;;;;;;;0.75;0.70;;;;;;;;;;5048446;28;20021;-86
2023/11/03 00:14:47;;;;;;;0.60;0.60;;;;;;;;;;5039708;28;20383;-90
2023/11/03 00:17:14;;;;;;;0.75;0.70;;;;;;;;;;5053603;28;20025;-87
2023/11/03 00:19:41;;;;;;;1.30;1.15;;;;;;;;;;5037044;28;20021;-87
2023/11/03 00:22:07;;;;;;;0.95;0.70;;;;;;;;;;5036436;28;20545;-90
2023/11/03 00:24:33;;;;;;;0.80;0.80;;;;;;;;;;5036619;28;20029;-92
2023/11/03 00:26:59;;;;;;;0.90;0.80;;;;;;;;;;5036229;28;20017;-88
2023/11/03 00:29:25;;;;;;;1.08;0.95;;;;;;;;;;5037839;28;20144;-90
2023/11/03 00:31:52;;;;;;;1.10;0.90;;;;;;;;;;5053119;28;20108;-90
2023/11/03 00:34:18;;;;;;;1.23;1.05;;;;;;;;;;5036561;28;20367;-90
2023/11/03 00:36:47;;;;;;;0.88;0.70;;;;;;;;;;5048370;28;20561;-90
2023/11/03 00:39:14;;;;;;;1.48;0.75;;;;;;;;;;5057134;28;20526;-87
2023/11/03 00:41:40;;;;;;;0.75;0.65;;;;;;;;;;5056290;28;20028;-88
2023/11/03 00:44:07;;;;;;;0.77;0.77;;;;;;;;;;5080607;28;20043;-88
2023/11/03 00:46:38;;;;;;;1.02;0.90;;;;;;;;;;5080569;28;20029;-88
2023/11/03 00:49:05;;;;;;;0.85;0.70;;;;;;;;;;5057727;28;20020;-89
2023/11/03 00:51:31;;;;;;;0.60;0.60;;;;;;;;;;5058372;28;20027;-90
2023/11/03 00:53:57;;;;;;;0.70;0.60;;;;;;;;;;5057223;28;20029;-89
2023/11/03 00:56:24;;;;;;;0.63;0.60;;;;;;;;;;5057449;28;20031;-90
2023/11/03 00:58:50;;;;;;;0.70;0.70;;;;;;;;;;5060431;28;20020;-90
2023/11/03 01:01:17;;;;;;;0.77;0.77;;;;;;;;;;5060626;28;20021;-89
2023/11/03 01:03:44;;;;;;;0.80;0.70;;;;;;;;;;5060252;28;20035;-88
2023/11/03 01:06:13;;;;;;;1.10;0.70;;;;;;;;;;5060460;28;20037;-90
2023/11/03 01:08:39;;;;;;;1.20;0.80;;;;;;;;;;5060189;28;20024;-88
2023/11/03 01:11:09;;;;;;;0.70;0.70;;;;;;;;;;5059943;28;20149;-88
2023/11/03 01:13:36;;;;;;;1.00;0.80;;;;;;;;;;5060136;28;20025;-88
2023/11/03 01:16:07;;;;;;;0.68;0.68;;;;;;;;;;5059840;28;20028;-88
2023/11/03 01:18:33;;;;;;;0.65;0.60;;;;;;;;;;5060232;28;20024;-88
2023/11/03 01:20:59;;;;;;;0.73;0.70;;;;;;;;;;5059949;28;20115;-90
2023/11/03 01:23:25;;;;;;;0.98;0.82;;;;;;;;;;5059712;28;20029;-90
2023/11/03 01:25:51;;;;;;;1.02;0.82;;;;;;;;;;5078005;28;20028;-87
2023/11/03 01:28:17;;;;;;;0.85;0.70;;;;;;;;;;5059939;28;20166;-89
2023/11/03 01:30:44;;;;;;;1.02;0.80;;;;;;;;;;5060159;28;20074;-91
2023/11/03 01:33:10;;;;;;;0.70;0.63;;;;;;;;;;5060404;28;20507;-88
2023/11/03 01:35:37;;;;;;;0.88;0.70;;;;;;;;;;5077147;28;20028;-89
2023/11/03 01:38:04;;;;;;;0.50;0.50;;;;;;;;;;5077323;28;20017;-88
2023/11/03 01:40:30;;;;;;;0.60;0.60;;;;;;;;;;5059565;28;20056;-89
2023/11/03 01:42:56;;;;;;;0.60;0.60;;;;;;;;;;5077515;28;20082;-88
2023/11/03 01:45:23;;;;;;;0.60;0.60;;;;;;;;;;5059139;28;20025;-90
2023/11/03 01:47:49;;;;;;;0.60;0.60;;;;;;;;;;5059656;28;20024;-87
2023/11/03 01:50:18;;;;;;;1.00;0.70;;;;;;;;;;5059990;28;20056;-90
2023/11/03 01:52:46;;;;;;;0.98;0.80;;;;;;;;;;5059380;28;20096;-88
2023/11/03 01:55:12;;;;;;;0.80;0.80;;;;;;;;;;5059196;28;20073;-89
2023/11/03 01:57:40;;;;;;;0.63;0.63;;;;;;;;;;5059063;28;20013;-88
2023/11/03 02:00:07;;;;;;;0.60;0.60;;;;;;;;;;5058955;28;20021;-90
2023/11/03 02:02:34;;;;;;;0.75;0.70;;;;;;;;;;5059203;28;20027;-88
2023/11/03 02:05:02;;;;;;;0.60;0.60;;;;;;;;;;5058818;28;20028;-87
2023/11/03 02:07:28;;;;;;;0.60;0.60;;;;;;;;;;5061899;28;20381;-88
2023/11/03 02:09:54;;;;;;;0.82;0.70;;;;;;;;;;5072631;28;20048;-88
2023/11/03 02:12:20;;;;;;;0.52;0.52;;;;;;;;;;5059965;28;20040;-88
2023/11/03 02:14:49;;;;;;;0.60;0.60;;;;;;;;;;5059021;28;20024;-88
2023/11/03 02:17:15;;;;;;;0.52;0.52;;;;;;;;;;5058892;28;20390;-87
2023/11/03 02:19:41;;;;;;;0.60;0.60;;;;;;;;;;5058705;28;20127;-88
2023/11/03 02:22:08;;;;;;;0.70;0.60;;;;;;;;;;5076630;28;20024;-87
2023/11/03 02:24:34;;;;;;;0.80;0.63;;;;;;;;;;5058619;28;20115;-88
2023/11/03 02:27:00;;;;;;;0.60;0.60;;;;;;;;;;5076293;28;20473;-88
2023/11/03 02:29:26;;;;;;;0.70;0.70;;;;;;;;;;5076616;28;20523;-90
2023/11/03 02:31:52;;;;;;;0.80;0.80;;;;;;;;;;5058779;28;20025;-89
2023/11/03 02:34:18;;;;;;;0.50;0.50;;;;;;;;;;5058767;28;20024;-89
2023/11/03 02:36:45;;;;;;;0.80;0.60;;;;;;;;;;5076061;28;20114;-89
2023/11/03 02:39:12;;;;;;;0.60;0.60;;;;;;;;;;5058720;28;20158;-89
2023/11/03 02:41:38;;;;;;;0.60;0.60;;;;;;;;;;5058262;28;20086;-90
2023/11/03 02:44:04;;;;;;;0.70;0.70;;;;;;;;;;5058527;28;20029;-88
2023/11/03 02:46:30;;;;;;;0.60;0.60;;;;;;;;;;5058503;28;20385;-90
2023/11/03 02:48:57;;;;;;;0.70;0.70;;;;;;;;;;5057807;28;20027;-88
2023/11/03 02:51:23;;;;;;;0.60;0.60;;;;;;;;;;5058310;28;20047;-88
2023/11/03 02:53:49;;;;;;;0.60;0.60;;;;;;;;;;5057949;28;20031;-87
2023/11/03 02:56:22;;;;;;;0.60;0.60;;;;;;;;;;5057867;28;20443;-89
2023/11/03 02:58:49;;;;;;;0.60;0.60;;;;;;;;;;5058164;28;20028;-90
2023/11/03 03:01:15;;;;;;;0.60;0.60;;;;;;;;;;5057634;28;20032;-89
2023/11/03 03:03:42;;;;;;;0.60;0.60;;;;;;;;;;5057716;28;20474;-88
2023/11/03 03:06:08;;;;;;;0.60;0.60;;;;;;;;;;5057538;28;20032;-88
2023/11/03 03:08:34;;;;;;;0.70;0.70;;;;;;;;;;5057374;28;20109;-90
2023/11/03 03:11:00;;;;;;;0.60;0.60;;;;;;;;;;5075872;28;20020;-90
2023/11/03 03:13:26;;;;;;;0.63;0.60;;;;;;;;;;5057437;28;20024;-87
2023/11/03 03:15:53;;;;;;;0.60;0.60;;;;;;;;;;5057319;28;20027;-88
2023/11/03 03:18:19;;;;;;;0.70;0.70;;;;;;;;;;5058359;28;20025;-88
2023/11/03 03:20:45;;;;;;;0.70;0.70;;;;;;;;;;5057727;28;20457;-88
2023/11/03 03:23:12;;;;;;;1.77;0.73;;;;;;;;;;5057574;28;20059;-88
2023/11/03 03:25:38;;;;;;;0.60;0.60;;;;;;;;;;5062918;28;20033;-88
2023/11/03 03:28:04;;;;;;;0.55;0.55;;;;;;;;;;5063146;28;20028;-88
2023/11/03 03:30:31;;;;;;;0.60;0.60;;;;;;;;;;5057013;28;20025;-90
2023/11/03 03:32:57;;;;;;;0.60;0.60;;;;;;;;;;5057886;28;20158;-88
2023/11/03 03:35:23;;;;;;;0.70;0.70;;;;;;;;;;5057070;28;20035;-89
2023/11/03 03:37:49;;;;;;;0.50;0.50;;;;;;;;;;5056875;28;20166;-89
2023/11/03 03:40:15;;;;;;;0.60;0.60;;;;;;;;;;5057362;28;20025;-88
2023/11/03 03:42:42;;;;;;;0.60;0.60;;;;;;;;;;5057600;28;20028;-89
2023/11/03 03:45:09;;;;;;;0.60;0.60;;;;;;;;;;5056971;28;20028;-89
2023/11/03 03:47:35;;;;;;;0.60;0.60;;;;;;;;;;5057135;28;20028;-89
2023/11/03 03:50:01;;;;;;;0.60;0.60;;;;;;;;;;5056741;28;20462;-88
2023/11/03 03:52:27;;;;;;;0.50;0.50;;;;;;;;;;5056767;28;20052;-85
2023/11/03 03:54:54;;;;;;;1.05;0.77;;;;;;;;;;5056820;28;20029;-88
2023/11/03 03:57:20;;;;;;;0.60;0.60;;;;;;;;;;5056457;28;20020;-88
2023/11/03 03:59:46;;;;;;;0.60;0.60;;;;;;;;;;5056799;28;20016;-86
2023/11/03 04:02:12;;;;;;;0.60;0.60;;;;;;;;;;5056923;28;20017;-89
2023/11/03 04:04:38;;;;;;;0.52;0.52;;;;;;;;;;5056641;28;20093;-89
2023/11/03 04:07:04;;;;;;;0.65;0.65;;;;;;;;;;5056929;28;20021;-88
2023/11/03 04:09:31;;;;;;;0.50;0.50;;;;;;;;;;5056579;28;20028;-88
2023/11/03 04:11:57;;;;;;;0.60;0.60;;;;;;;;;;5056352;28;20025;-89
2023/11/03 04:14:23;;;;;;;0.70;0.70;;;;;;;;;;5057141;28;20043;-91
2023/11/03 04:16:49;;;;;;;0.65;0.65;;;;;;;;;;5072225;28;20005;-88
2023/11/03 04:19:15;;;;;;;0.50;0.50;;;;;;;;;;5074260;28;20032;-89
2023/11/03 04:21:44;;;;;;;0.65;0.60;;;;;;;;;;5083167;28;20051;-89
2023/11/03 04:24:10;;;;;;;0.77;0.77;;;;;;;;;;5075120;28;20044;-88
2023/11/03 04:26:36;;;;;;;0.60;0.60;;;;;;;;;;5056436;28;20115;-86
2023/11/03 04:29:02;;;;;;;0.80;0.80;;;;;;;;;;5056801;28;20493;-88
2023/11/03 04:31:28;;;;;;;0.68;0.68;;;;;;;;;;5056336;28;20031;-87
2023/11/03 04:33:55;;;;;;;0.50;0.50;;;;;;;;;;5056411;28;20489;-88
2023/11/03 04:36:21;;;;;;;0.60;0.60;;;;;;;;;;5055775;28;20139;-86
2023/11/03 04:38:48;;;;;;;0.60;0.60;;;;;;;;;;5056334;28;20027;-87
2023/11/03 04:41:14;;;;;;;0.50;0.50;;;;;;;;;;5055971;28;20016;-86
2023/11/03 04:43:41;;;;;;;0.60;0.60;;;;;;;;;;5056576;28;20029;-86
2023/11/03 04:46:08;;;;;;;0.60;0.60;;;;;;;;;;5056179;28;20012;-87
2023/11/03 04:48:35;;;;;;;0.50;0.50;;;;;;;;;;5056251;28;20029;-86
2023/11/03 04:51:02;;;;;;;0.55;0.55;;;;;;;;;;5056739;28;20075;-87
2023/11/03 04:53:28;;;;;;;0.60;0.60;;;;;;;;;;5055994;28;20021;-86
2023/11/03 04:55:54;;;;;;;0.70;0.70;;;;;;;;;;5056145;28;20025;-86
2023/11/03 04:58:20;;;;;;;0.50;0.50;;;;;;;;;;5056153;28;20171;-89
2023/11/03 05:00:47;;;;;;;0.60;0.60;;;;;;;;;;5055901;28;20021;-88
2023/11/03 05:03:14;;;;;;;0.82;0.70;;;;;;;;;;5056190;28;20032;-88
2023/11/03 05:05:41;;;;;;;0.57;0.57;;;;;;;;;;5056143;28;20086;-86
2023/11/03 05:08:08;;;;;;;0.60;0.60;;;;;;;;;;5055513;28;20031;-86
2023/11/03 05:10:34;;;;;;;0.55;0.55;;;;;;;;;;5055831;28;20025;-86
2023/11/03 05:13:00;;;;;;;0.57;0.57;;;;;;;;;;5055796;28;20029;-86
2023/11/03 05:15:26;;;;;;;0.60;0.60;;;;;;;;;;5056001;28;20030;-86
2023/11/03 05:17:52;;;;;;;0.60;0.60;;;;;;;;;;5074117;28;20020;-86
2023/11/03 05:20:20;;;;;;;0.50;0.50;;;;;;;;;;5056130;28;20069;-86
2023/11/03 05:22:46;;;;;;;0.60;0.60;;;;;;;;;;5055669;28;20020;-86
2023/11/03 05:25:15;;;;;;;0.60;0.60;;;;;;;;;;5055729;28;20028;-86
2023/11/03 05:27:42;;;;;;;0.50;0.50;;;;;;;;;;5055701;28;20159;-88
2023/11/03 05:30:08;;;;;;;0.50;0.50;;;;;;;;;;5055572;28;20481;-87
2023/11/03 05:32:38;;;;;;;0.68;0.68;;;;;;;;;;5074049;28;20374;-87
2023/11/03 05:35:05;;;;;;;0.63;0.60;;;;;;;;;;5055612;28;20140;-86
2023/11/03 05:37:31;;;;;;;0.52;0.52;;;;;;;;;;5055814;28;20135;-87
2023/11/03 05:39:58;;;;;;;0.88;0.70;;;;;;;;;;5055642;28;20381;-86
2023/11/03 05:42:25;;;;;;;0.60;0.60;;;;;;;;;;5055476;28;20017;-86
2023/11/03 05:44:51;;;;;;;0.85;0.70;;;;;;;;;;5077107;28;20078;-86
2023/11/03 05:47:17;;;;;;;0.70;0.70;;;;;;;;;;5059281;28;20020;-88
2023/11/03 05:49:43;;;;;;;0.80;0.77;;;;;;;;;;5059010;28;20024;-86
2023/11/03 05:52:09;;;;;;;0.82;0.75;;;;;;;;;;5059888;28;20058;-87
2023/11/03 05:54:35;;;;;;;0.80;0.80;;;;;;;;;;5059309;28;20024;-88
2023/11/03 05:57:01;;;;;;;0.57;0.57;;;;;;;;;;5058957;28;20493;-87
2023/11/03 05:59:27;;;;;;;0.65;0.65;;;;;;;;;;5059267;28;20021;-89
2023/11/03 06:01:53;;;;;;;1.30;0.90;;;;;;;;;;5059289;28;20561;-87
2023/11/03 06:04:19;;;;;;;0.68;0.68;;;;;;;;;;5058969;28;20033;-89
2023/11/03 06:06:48;;;;;;;0.68;0.68;;;;;;;;;;5058992;28;20393;-88
2023/11/03 06:09:14;;;;;;;0.65;0.65;;;;;;;;;;5059063;28;20028;-89
2023/11/03 06:11:40;;;;;;;0.50;0.50;;;;;;;;;;5059456;28;20048;-86
2023/11/03 06:14:07;;;;;;;0.65;0.65;;;;;;;;;;5059033;28;20028;-89
2023/11/03 06:16:36;;;;;;;0.70;0.70;;;;;;;;;;5059354;28;20055;-87
2023/11/03 06:19:03;;;;;;;0.60;0.60;;;;;;;;;;5064186;28;20027;-91
2023/11/03 06:21:29;;;;;;;1.55;0.77;;;;;;;;;;5060099;28;20074;-89
2023/11/03 06:23:56;;;;;;;0.60;0.60;;;;;;;;;;5058314;28;20059;-87
2023/11/03 06:26:22;;;;;;;0.70;0.70;;;;;;;;;;5058794;28;20017;-89
2023/11/03 06:28:48;;;;;;;0.65;0.65;;;;;;;;;;5059337;28;20028;-87
2023/11/03 06:31:14;;;;;;;0.57;0.57;;;;;;;;;;5058795;28;20359;-89
2023/11/03 06:33:40;;;;;;;0.50;0.50;;;;;;;;;;5060165;28;20056;-87
2023/11/03 06:36:06;;;;;;;0.57;0.57;;;;;;;;;;5063441;28;20076;-89
2023/11/03 06:38:33;;;;;;;0.47;0.47;;;;;;;;;;5064899;28;20056;-89
2023/11/03 06:40:59;;;;;;;0.60;0.60;;;;;;;;;;5059432;28;20052;-88
2023/11/03 06:43:25;;;;;;;0.50;0.50;;;;;;;;;;5061031;28;20031;-89
2023/11/03 06:45:51;;;;;;;0.70;0.70;;;;;;;;;;5057966;28;20474;-90
2023/11/03 06:48:17;;;;;;;0.60;0.60;;;;;;;;;;5058724;28;20031;-89
2023/11/03 06:50:43;;;;;;;0.60;0.60;;;;;;;;;;5059737;28;20024;-87
2023/11/03 06:53:10;;;;;;;1.55;1.05;;;;;;;;;;5059068;28;20020;-87
2023/11/03 06:55:36;;;;;;;0.60;0.60;;;;;;;;;;5057863;28;20031;-87
2023/11/03 06:58:02;;;;;;;0.65;0.65;;;;;;;;;;5075952;28;20471;-88
2023/11/03 07:00:29;;;;;;;0.60;0.60;;;;;;;;;;5057831;28;20031;-85
2023/11/03 07:02:56;;;;;;;0.57;0.57;;;;;;;;;;5076684;28;20538;-87
2023/11/03 07:05:24;;;;;;;0.50;0.50;;;;;;;;;;5058743;28;20170;-84
2023/11/03 07:07:50;;;;;;;0.50;0.50;;;;;;;;;;5057910;28;20025;-85
2023/11/03 07:10:16;;;;;;;0.50;0.50;;;;;;;;;;5058599;28;20040;-86
2023/11/03 07:12:43;;;;;;;0.70;0.70;;;;;;;;;;5075687;28;20366;-86
2023/11/03 07:15:11;;;;;;;0.50;0.50;;;;;;;;;;5076565;28;20488;-87
2023/11/03 07:17:37;;;;;;;0.60;0.60;;;;;;;;;;5058434;28;20025;-88
2023/11/03 07:20:05;;;;;;;0.60;0.60;;;;;;;;;;5058497;28;20039;-88
2023/11/03 07:22:32;;;;;;;0.52;0.52;;;;;;;;;;5057879;28;20031;-86
2023/11/03 07:24:58;;;;;;;0.60;0.60;;;;;;;;;;5075839;28;20039;-85
2023/11/03 07:27:25;;;;;;;0.50;0.50;;;;;;;;;;5058206;28;20362;-87
2023/11/03 07:29:51;;;;;;;0.57;0.57;;;;;;;;;;5057655;28;20040;-92
2023/11/03 07:32:18;;;;;;;0.50;0.50;;;;;;;;;;5057648;28;20035;-88
2023/11/03 07:34:44;;;;;;;0.50;0.50;;;;;;;;;;5057839;28;20052;-84
2023/11/03 07:37:12;;;;;;;2.28;0.93;;;;;;;;;;5057977;28;20052;-85
2023/11/03 07:39:39;;;;;;;0.50;0.50;;;;;;;;;;5058192;28;20028;-87
2023/11/03 07:42:05;;;;;;;0.50;0.50;;;;;;;;;;5056904;28;20087;-85
2023/11/03 07:44:34;;;;;;;0.60;0.60;;;;;;;;;;5057038;28;20553;-88
2023/11/03 07:47:02;;;;;;;0.70;0.70;;;;;;;;;;5056869;28;20035;-88
2023/11/03 07:49:28;;;;;;;0.50;0.50;;;;;;;;;;5074836;28;20020;-86
2023/11/03 07:51:54;;;;;;;0.50;0.50;;;;;;;;;;5057412;28;20464;-86
2023/11/03 07:54:22;;;;;;;0.50;0.50;;;;;;;;;;5057543;28;20071;-86
2023/11/03 07:56:48;;;;;;;0.75;0.75;;;;;;;;;;5074774;28;20499;-87
2023/11/03 07:59:14;;;;;;;0.60;0.60;;;;;;;;;;5057177;28;20082;-85
2023/11/03 08:01:40;;;;;;;0.50;0.50;;;;;;;;;;5056959;28;20024;-85
2023/11/03 08:04:06;;;;;;;1.27;1.20;;;;;;;;;;5056484;28;20051;-87
2023/11/03 08:06:32;;;;;;;0.60;0.60;;;;;;;;;;5056077;28;20034;-84
2023/11/03 08:08:59;;;;;;;0.50;0.50;;;;;;;;;;5057344;28;20020;-85
2023/11/03 08:11:25;;;;;;;0.50;0.50;;;;;;;;;;5057434;28;20107;-88
2023/11/03 08:13:51;;;;;;;0.55;0.55;;;;;;;;;;5067193;28;20029;-83
2023/11/03 08:16:17;;;;;;;0.90;0.90;;;;;;;;;;5076897;28;20013;-85
2023/11/03 08:18:45;;;;;;;0.50;0.50;;;;;;;;;;5063583;28;20086;-84
2023/11/03 08:21:11;;;;;;;0.55;0.55;;;;;;;;;;5057722;28;20605;-85
2023/11/03 08:23:37;;;;;;;0.50;0.50;;;;;;;;;;5055419;28;20021;-87
2023/11/03 08:26:05;;;;;;;0.50;0.50;;;;;;;;;;5053138;28;20071;-83
2023/11/03 08:28:32;;;;;;;0.50;0.50;;;;;;;;;;5036189;28;20039;-85
2023/11/03 08:31:02;;;;;;;0.50;0.50;;;;;;;;;;5036296;28;20025;-89
2023/11/03 08:33:28;;;;;;;0.50;0.50;;;;;;;;;;5052926;28;20031;-86
2023/11/03 08:35:54;;;;;;;0.40;0.40;;;;;;;;;;5052776;28;20559;-87
2023/11/03 08:38:22;;;;;;;0.50;0.50;;;;;;;;;;5053236;28;20403;-87
2023/11/03 08:40:49;;;;;;;0.40;0.40;;;;;;;;;;5052744;28;20025;-86
2023/11/03 08:43:15;;;;;;;0.40;0.40;;;;;;;;;;5053289;28;20124;-86
2023/11/03 08:45:43;;;;;;;0.40;0.40;;;;;;;;;;5053842;28;20036;-82
2023/11/03 08:48:09;;;;;;;0.65;0.65;;;;;;;;;;5035324;28;20096;-82
2023/11/03 08:50:36;;;;;;;0.50;0.50;;;;;;;;;;5053183;28;20051;-81
2023/11/03 08:53:03;;;;;;;0.50;0.50;;;;;;;;;;5052382;28;20390;-83
2023/11/03 08:55:29;;;;;;;0.50;0.50;;;;;;;;;;5053135;28;20025;-81
2023/11/03 08:57:57;;;;;;;0.40;0.40;;;;;;;;;;5052541;28;20021;-84
2023/11/03 09:00:23;;;;;;;0.50;0.50;;;;;;;;;;5052978;28;20017;-83
2023/11/03 09:02:50;;;;;;;0.40;0.40;;;;;;;;;;5052727;28;20033;-87
2023/11/03 09:05:16;;;;;;;0.73;0.73;;;;;;;;;;5052951;28;20025;-82
2023/11/03 09:07:43;;;;;;;0.50;0.50;;;;;;;;;;5053201;28;20126;-82
2023/11/03 09:10:10;;;;;;;0.88;0.88;;;;;;;;;;5053023;28;20021;-83
2023/11/03 09:12:37;;;;;;;0.40;0.40;;;;;;;;;;5052552;28;20028;-82
2023/11/03 09:15:04;;;;;;;2.40;0.50;;;;;;;;;;5052551;28;20482;-83
2023/11/03 09:17:34;;;;;;;0.30;0.30;;;;;;;;;;5053920;28;20029;-82
2023/11/03 09:20:00;;;;;;;0.40;0.40;;;;;;;;;;5056515;28;20504;-82
2023/11/03 09:22:27;;;;;;;0.40;0.40;;;;;;;;;;5056041;28;20045;-82
2023/11/03 09:24:56;;;;;;;0.40;0.40;;;;;;;;;;5057570;28;20075;-86
2023/11/03 09:27:23;;;;;;;0.45;0.45;;;;;;;;;;5056770;28;20071;-84
2023/11/03 09:29:49;;;;;;;0.40;0.40;;;;;;;;;;5059370;28;20029;-84
2023/11/03 09:32:17;;;;;;;0.40;0.40;;;;;;;;;;5061066;28;20031;-84
2023/11/03 09:34:45;;;;;;;0.40;0.40;;;;;;;;;;5060152;28;20462;-85
2023/11/03 09:37:12;;;;;;;0.50;0.50;;;;;;;;;;5060490;28;20041;-84
2023/11/03 09:39:39;;;;;;;0.40;0.40;;;;;;;;;;5060920;28;20037;-85
2023/11/03 09:42:06;;;;;;;0.40;0.40;;;;;;;;;;5061458;28;20025;-85
2023/11/03 09:44:32;;;;;;;0.50;0.50;;;;;;;;;;5057813;28;20029;-86
2023/11/03 09:47:02;;;;;;;2.53;0.60;;;;;;;;;;5056268;28;20033;-83
2023/11/03 09:49:29;;;;;;;0.85;0.73;;;;;;;;;;5056085;28;20444;-82
2023/11/03 09:52:02;;;;;;;0.40;0.40;;;;;;;;;;5056015;28;20043;-85
2023/11/03 09:54:31;;;;;;;0.40;0.40;;;;;;;;;;5057117;28;20482;-85
2023/11/03 09:56:59;;;;;;;0.40;0.40;;;;;;;;;;5058072;28;20017;-85
2023/11/03 09:59:51;;;;;;;0.50;0.50;;;;;;;;;;5056402;28;20116;-83
2023/11/03 10:02:43;;;;;;;0.40;0.40;;;;;;;;;;4995649;28;20042;-83
2023/11/03 10:05:43;;;;;;;0.30;0.30;;;;;;;;;;4994935;28;20081;-82
2023/11/03 10:08:39;;;;;;;0.40;0.40;;;;;;;;;;4995800;28;20057;-83
2023/11/03 10:11:23;;;;;;;0.40;0.40;;;;;;;;;;4955206;29;20040;-83
2023/11/03 10:16:52;;;;;;;0.40;0.40;;;;;;;;;;4956584;29;20105;-85
2023/11/03 10:19:42;;;;;;;0.40;0.40;;;;;;;;;;4956199;29;20086;-85
2023/11/03 10:22:27;;;;;;;0.40;0.40;;;;;;;;;;4957047;29;20059;-84
2023/11/03 10:24:57;;;;;;;0.40;0.40;;;;;;;;;;4956265;29;20027;-85
2023/11/03 10:27:32;;;;;;;0.30;0.30;;;;;;;;;;4956408;29;20031;-87
2023/11/03 10:29:59;;;;;;;0.55;0.43;;;;;;;;;;4955731;28;20027;-86
2023/11/03 10:32:25;;;;;;;0.45;0.45;;;;;;;;;;4956607;29;20059;-86
2023/11/03 10:34:53;;;;;;;0.30;0.30;;;;;;;;;;4956489;29;20039;-85
2023/11/03 10:37:27;;;;;;;0.40;0.40;;;;;;;;;;4956363;29;20134;-85
2023/11/03 10:39:53;;;;;;;0.40;0.40;;;;;;;;;;4988640;28;20037;-86
2023/11/03 10:42:23;;;;;;;0.47;0.47;;;;;;;;;;4998336;28;20050;-85
2023/11/03 10:44:50;;;;;;;0.40;0.40;;;;;;;;;;4998417;28;20022;-88
2023/11/03 10:47:22;;;;;;;0.40;0.40;;;;;;;;;;5020517;28;20127;-84
2023/11/03 10:49:50;;;;;;;0.93;0.93;;;;;;;;;;5055943;28;20032;-86
2023/11/03 10:52:16;;;;;;;0.40;0.40;;;;;;;;;;5056656;28;20025;-84
2023/11/03 10:55:09;;;;;;;0.40;0.40;;;;;;;;;;5055094;28;20021;-85
2023/11/03 10:57:36;;;;;;;0.93;0.52;;;;;;;;;;5052232;28;20036;-85
2023/11/03 11:00:09;;;;;;;0.38;0.38;;;;;;;;;;5056216;28;20029;-83
2023/11/03 11:02:56;;;;;;;0.45;0.45;;;;;;;;;;5065016;28;20065;-86
2023/11/03 11:05:32;;;;;;;0.30;0.30;;;;;;;;;;5068614;28;20041;-86
2023/11/03 11:08:00;;;;;;;0.50;0.50;;;;;;;;;;5054088;28;20021;-85
2023/11/03 11:10:36;;;;;;;0.40;0.40;;;;;;;;;;5054474;28;20067;-84
2023/11/03 11:13:04;;;;;;;0.47;0.47;;;;;;;;;;5054391;28;20028;-86
2023/11/03 11:15:31;;;;;;;0.50;0.50;;;;;;;;;;5054330;28;20032;-85
2023/11/03 11:18:03;;;;;;;0.60;0.60;;;;;;;;;;5055538;28;20108;-84
2023/11/03 11:20:32;;;;;;;0.30;0.30;;;;;;;;;;5055658;28;20027;-84
2023/11/03 11:22:59;;;;;;;0.40;0.40;;;;;;;;;;5054453;28;20092;-87
2023/11/03 11:25:28;;;;;;;0.50;0.50;;;;;;;;;;5054414;28;20033;-85
2023/11/03 11:27:54;;;;;;;0.40;0.40;;;;;;;;;;5054834;28;20051;-86
2023/11/03 11:30:20;;;;;;;0.40;0.40;;;;;;;;;;5053995;28;20531;-85
2023/11/03 11:32:53;;;;;;;0.43;0.43;;;;;;;;;;5054365;28;20021;-84
2023/11/03 11:35:20;;;;;;;0.30;0.30;;;;;;;;;;5054721;28;20025;-84
2023/11/03 11:37:47;;;;;;;0.40;0.40;;;;;;;;;;5069679;28;20474;-84
2023/11/03 11:40:13;;;;;;;0.30;0.30;;;;;;;;;;5056377;28;20021;-87
2023/11/03 11:42:44;;;;;;;0.40;0.40;;;;;;;;;;5056313;28;20028;-86
2023/11/03 11:45:11;;;;;;;0.30;0.30;;;;;;;;;;5057257;28;20033;-86
2023/11/03 11:47:38;;;;;;;0.32;0.32;;;;;;;;;;5057547;28;20032;-85
2023/11/03 11:50:05;;;;;;;0.40;0.40;;;;;;;;;;5057044;28;20468;-86
2023/11/03 11:52:31;;;;;;;0.35;0.35;;;;;;;;;;5057811;28;20017;-85
2023/11/03 11:54:58;;;;;;;0.40;0.40;;;;;;;;;;5074143;28;20033;-85
2023/11/03 11:57:26;;;;;;;2.50;0.68;;;;;;;;;;5057017;28;20409;-84
2023/11/03 11:59:53;;;;;;;0.40;0.40;;;;;;;;;;5057454;28;20055;-85
2023/11/03 12:02:22;;;;;;;0.88;0.50;;;;;;;;;;5057058;28;20061;-85
2023/11/03 12:04:52;;;;;;;0.50;0.50;;;;;;;;;;5056596;28;20032;-84
2023/11/03 12:07:22;;;;;;;0.40;0.40;;;;;;;;;;5057077;28;20409;-85
2023/11/03 12:09:53;;;;;;;0.40;0.40;;;;;;;;;;5062514;28;20080;-86
2023/11/03 12:12:20;;;;;;;0.40;0.40;;;;;;;;;;5081389;28;20035;-84
2023/11/03 12:14:47;;;;;;;0.30;0.30;;;;;;;;;;5063030;28;20091;-85
2023/11/03 12:17:14;;;;;;;0.70;0.70;;;;;;;;;;5058542;28;20017;-84
2023/11/03 12:19:43;;;;;;;0.30;0.30;;;;;;;;;;5057240;28;20024;-84
2023/11/03 12:22:19;;;;;;;0.40;0.40;;;;;;;;;;5074775;28;20452;-84
2023/11/03 12:24:45;;;;;;;0.40;0.40;;;;;;;;;;5056744;28;20123;-88
2023/11/03 12:27:11;;;;;;;0.40;0.40;;;;;;;;;;5057505;28;20020;-85
2023/11/03 12:29:39;;;;;;;0.55;0.55;;;;;;;;;;5056864;28;20476;-85
2023/11/03 12:32:05;;;;;;;0.40;0.40;;;;;;;;;;5056540;28;20454;-85
2023/11/03 12:34:31;;;;;;;0.43;0.43;;;;;;;;;;5056698;28;20029;-83
2023/11/03 12:36:58;;;;;;;0.30;0.30;;;;;;;;;;5042160;28;20084;-85
2023/11/03 12:39:25;;;;;;;0.55;0.55;;;;;;;;;;5066297;28;20045;-87
2023/11/03 12:42:01;;;;;;;0.47;0.47;;;;;;;;;;5054111;28;20055;-84
2023/11/03 12:44:27;;;;;;;0.60;0.60;;;;;;;;;;5053082;28;20029;-83
2023/11/03 12:46:54;;;;;;;0.38;0.38;;;;;;;;;;5054401;28;20057;-85
2023/11/03 12:49:24;;;;;;;1.00;0.88;;;;;;;;;;5052966;28;20032;-85
2023/11/03 12:51:53;;;;;;;0.47;0.47;;;;;;;;;;5053772;28;20553;-84
2023/11/03 12:54:21;;;;;;;0.50;0.50;;;;;;;;;;5057182;28;20522;-84
2023/11/03 12:56:50;;;;;;;0.32;0.32;;;;;;;;;;5056678;28;20112;-82
2023/11/03 12:59:22;;;;;;;0.43;0.43;;;;;;;;;;5056402;28;20023;-83
2023/11/03 13:01:50;;;;;;;0.40;0.40;;;;;;;;;;5056466;28;20028;-81
2023/11/03 13:04:18;;;;;;;0.40;0.40;;;;;;;;;;5056168;28;20124;-80
2023/11/03 13:06:47;;;;;;;0.40;0.40;;;;;;;;;;5056077;28;20040;-81
2023/11/03 13:09:13;;;;;;;0.40;0.40;;;;;;;;;;5056233;28;20017;-80
2023/11/03 13:11:42;;;;;;;0.55;0.55;;;;;;;;;;5056223;28;20489;-81
2023/11/03 13:14:09;;;;;;;0.40;0.40;;;;;;;;;;5055578;28;20021;-80
2023/11/03 13:16:35;;;;;;;0.40;0.40;;;;;;;;;;5056125;28;20110;-81
2023/11/03 13:19:01;;;;;;;0.55;0.55;;;;;;;;;;5056202;28;20021;-82
2023/11/03 13:21:27;;;;;;;0.47;0.47;;;;;;;;;;5055952;28;20036;-83
2023/11/03 13:23:56;;;;;;;0.50;0.50;;;;;;;;;;5055962;28;20025;-82
2023/11/03 13:26:22;;;;;;;0.98;0.63;;;;;;;;;;5056034;28;20421;-82
2023/11/03 13:28:48;;;;;;;0.50;0.50;;;;;;;;;;5057005;28;20025;-82
2023/11/03 13:31:14;;;;;;;0.40;0.40;;;;;;;;;;5055856;28;20071;-82
2023/11/03 13:33:40;;;;;;;0.60;0.60;;;;;;;;;;5055919;28;20063;-82
2023/11/03 14:53:56;;;;;;;0.63;0.60;;;;;;;;;;5075643;28;20062;-81
2023/11/03 15:54:00;;;;;;;0.80;0.80;;;;;;;;;;5074400;28;20408;-81
2023/11/03 15:56:28;;;;;;;1.23;1.13;;;;;;;;;;5056268;28;20040;-80
2023/11/03 15:58:55;;;;;;;0.70;0.70;;;;;;;;;;5055826;28;20497;-81
2023/11/03 16:01:21;;;;;;;0.50;0.50;;;;;;;;;;5057000;28;20115;-82
2023/11/03 16:03:47;;;;;;;0.40;0.40;;;;;;;;;;5056304;28;20521;-81
2023/11/03 16:06:13;;;;;;;0.47;0.47;;;;;;;;;;5056245;28;20066;-82
2023/11/03 16:08:39;;;;;;;0.50;0.50;;;;;;;;;;5055740;28;20028;-82
2023/11/03 16:11:08;;;;;;;0.70;0.70;;;;;;;;;;5056115;28;20056;-80
2023/11/03 16:13:34;;;;;;;1.17;0.70;;;;;;;;;;5056184;28;20028;-82
2023/11/03 16:16:01;;;;;;;0.60;0.60;;;;;;;;;;5055788;28;20504;-81
2023/11/03 16:18:27;;;;;;;0.50;0.50;;;;;;;;;;5055834;28;20059;-81
2023/11/03 16:20:53;;;;;;;0.60;0.60;;;;;;;;;;5055901;28;20111;-81
2023/11/03 16:23:19;;;;;;;0.73;0.70;;;;;;;;;;5055631;28;20085;-81
2023/11/03 16:25:47;;;;;;;0.80;0.80;;;;;;;;;;5056167;28;20479;-81
2023/11/03 16:28:13;;;;;;;1.30;0.75;;;;;;;;;;5073635;28;20032;-81
2023/11/03 16:30:40;;;;;;;0.82;0.80;;;;;;;;;;5067627;28;20005;-81
2023/11/03 16:33:06;;;;;;;1.75;1.15;;;;;;;;;;5077337;28;20039;-81
2023/11/03 16:35:33;;;;;;;0.55;0.55;;;;;;;;;;5057474;28;20068;-82
2023/11/03 16:37:59;;;;;;;1.33;0.80;;;;;;;;;;5054617;28;20033;-82
2023/11/03 16:40:26;;;;;;;0.93;0.70;;;;;;;;;;5053327;28;20055;-81
2023/11/03 16:42:52;;;;;;;0.93;0.82;;;;;;;;;;5051439;28;20530;-82
2023/11/03 16:45:19;;;;;;;0.88;0.77;;;;;;;;;;5050870;28;20095;-82
2023/11/03 16:47:45;;;;;;;0.73;0.68;;;;;;;;;;5051305;28;20033;-81
2023/11/03 16:50:11;;;;;;;0.90;0.80;;;;;;;;;;5051195;28;20017;-81
2023/11/03 16:52:39;;;;;;;2.22;1.30;;;;;;;;;;5050713;28;20048;-81
2023/11/03 16:55:13;;;;;;;0.70;0.70;;;;;;;;;;5051023;28;20033;-81
2023/11/03 16:57:39;;;;;;;0.50;0.50;;;;;;;;;;5035912;28;20477;-81
2023/11/03 17:00:11;;;;;;;0.70;0.70;;;;;;;;;;5052043;28;20028;-82
2023/11/03 17:02:37;;;;;;;0.50;0.50;;;;;;;;;;5051178;28;20087;-81